sensor_id;sensor_type;location;lat;lon;timestamp;P1;durP1;ratioP1;P2;durP2;ratioP2
29954;SDS011;68448;51.188;6.868;2023-09-19T00:00:45;7.73;;;2.80;;
29954;SDS011;68448;51.188;6.868;2023-09-19T00:03:12;8.93;;;3.03;;
29954;SDS011;68448;51.188;6.868;2023-09-19T00:05:41;8.40;;;2.80;;
29954;SDS011;68448;51.188;6.868;2023-09-19T00:08:08;9.50;;;3.30;;
29954;SDS011;68448;51.188;6.868;2023-09-19T00:10:35;10.03;;;2.90;;
29954;SDS011;68448;51.188;6.868;2023-09-19T00:13:03;8.43;;;2.80;;
29954;SDS011;68448;51.188;6.868;2023-09-19T00:15:31;6.60;;;2.93;;
29954;SDS011;68448;51.188;6.868;2023-09-19T00:17:58;10.77;;;3.37;;
29954;SDS011;68448;51.188;6.868;2023-09-19T00:20:25;5.40;;;2.70;;
29954;SDS011;68448;51.188;6.868;2023-09-19T00:22:53;6.57;;;2.93;;
29954;SDS011;68448;51.188;6.868;2023-09-19T00:25:21;10.57;;;3.20;;
29954;SDS011;68448;51.188;6.868;2023-09-19T00:27:48;11.80;;;3.73;;
29954;SDS011;68448;51.188;6.868;2023-09-19T00:30:15;9.70;;;3.30;;
29954;SDS011;68448;51.188;6.868;2023-09-19T00:32:43;17.20;;;4.50;;
29954;SDS011;68448;51.188;6.868;2023-09-19T00:35:10;19.40;;;3.57;;
29954;SDS011;68448;51.188;6.868;2023-09-19T00:37:37;10.57;;;3.30;;
29954;SDS011;68448;51.188;6.868;2023-09-19T00:40:08;15.57;;;3.30;;
29954;SDS011;68448;51.188;6.868;2023-09-19T00:42:35;8.63;;;3.27;;
29954;SDS011;68448;51.188;6.868;2023-09-19T00:45:03;5.53;;;2.30;;
29954;SDS011;68448;51.188;6.868;2023-09-19T00:47:30;10.23;;;3.57;;
29954;SDS011;68448;51.188;6.868;2023-09-19T00:49:57;11.37;;;3.50;;
29954;SDS011;68448;51.188;6.868;2023-09-19T00:52:25;8.90;;;3.00;;
29954;SDS011;68448;51.188;6.868;2023-09-19T00:54:52;12.13;;;4.20;;
29954;SDS011;68448;51.188;6.868;2023-09-19T00:57:21;13.20;;;5.00;;
29954;SDS011;68448;51.188;6.868;2023-09-19T00:59:48;16.83;;;3.60;;
29954;SDS011;68448;51.188;6.868;2023-09-19T01:02:17;12.30;;;3.33;;
29954;SDS011;68448;51.188;6.868;2023-09-19T01:04:44;6.47;;;2.53;;
29954;SDS011;68448;51.188;6.868;2023-09-19T01:07:11;6.83;;;2.90;;
29954;SDS011;68448;51.188;6.868;2023-09-19T01:09:38;7.70;;;3.00;;
29954;SDS011;68448;51.188;6.868;2023-09-19T01:12:06;6.20;;;3.13;;
29954;SDS011;68448;51.188;6.868;2023-09-19T01:14:37;10.17;;;2.63;;
29954;SDS011;68448;51.188;6.868;2023-09-19T01:17:07;9.43;;;3.87;;
29954;SDS011;68448;51.188;6.868;2023-09-19T01:19:51;14.83;;;3.57;;
29954;SDS011;68448;51.188;6.868;2023-09-19T01:22:23;7.97;;;3.20;;
29954;SDS011;68448;51.188;6.868;2023-09-19T01:25:04;14.17;;;3.80;;
29954;SDS011;68448;51.188;6.868;2023-09-19T01:27:44;13.70;;;3.00;;
29954;SDS011;68448;51.188;6.868;2023-09-19T01:30:18;8.23;;;3.53;;
29954;SDS011;68448;51.188;6.868;2023-09-19T01:32:46;14.87;;;3.50;;
29954;SDS011;68448;51.188;6.868;2023-09-19T01:35:15;14.63;;;3.33;;
29954;SDS011;68448;51.188;6.868;2023-09-19T01:37:42;9.00;;;2.80;;
29954;SDS011;68448;51.188;6.868;2023-09-19T01:40:11;11.90;;;3.10;;
29954;SDS011;68448;51.188;6.868;2023-09-19T01:42:40;11.47;;;3.40;;
29954;SDS011;68448;51.188;6.868;2023-09-19T01:45:11;9.70;;;3.43;;
29954;SDS011;68448;51.188;6.868;2023-09-19T01:47:41;10.20;;;3.07;;
29954;SDS011;68448;51.188;6.868;2023-09-19T01:50:12;10.97;;;3.23;;
29954;SDS011;68448;51.188;6.868;2023-09-19T01:52:43;10.10;;;2.63;;
29954;SDS011;68448;51.188;6.868;2023-09-19T01:55:12;11.07;;;2.57;;
29954;SDS011;68448;51.188;6.868;2023-09-19T01:57:40;9.10;;;3.40;;
29954;SDS011;68448;51.188;6.868;2023-09-19T02:02:38;13.70;;;3.13;;
29954;SDS011;68448;51.188;6.868;2023-09-19T02:05:08;8.90;;;3.20;;
29954;SDS011;68448;51.188;6.868;2023-09-19T02:07:35;11.60;;;2.37;;
29954;SDS011;68448;51.188;6.868;2023-09-19T02:10:02;11.43;;;3.67;;
29954;SDS011;68448;51.188;6.868;2023-09-19T02:12:30;3.73;;;2.23;;
29954;SDS011;68448;51.188;6.868;2023-09-19T02:15:01;5.33;;;2.33;;
29954;SDS011;68448;51.188;6.868;2023-09-19T02:17:29;8.33;;;2.60;;
29954;SDS011;68448;51.188;6.868;2023-09-19T02:19:56;7.87;;;2.67;;
29954;SDS011;68448;51.188;6.868;2023-09-19T02:22:24;9.00;;;2.50;;
29954;SDS011;68448;51.188;6.868;2023-09-19T02:24:51;8.73;;;2.97;;
29954;SDS011;68448;51.188;6.868;2023-09-19T02:27:19;8.53;;;2.70;;
29954;SDS011;68448;51.188;6.868;2023-09-19T02:29:46;7.23;;;2.87;;
29954;SDS011;68448;51.188;6.868;2023-09-19T02:32:13;9.90;;;3.20;;
29954;SDS011;68448;51.188;6.868;2023-09-19T02:34:40;13.53;;;3.30;;
29954;SDS011;68448;51.188;6.868;2023-09-19T02:37:07;11.07;;;2.90;;
29954;SDS011;68448;51.188;6.868;2023-09-19T02:39:36;7.87;;;2.70;;
29954;SDS011;68448;51.188;6.868;2023-09-19T02:42:03;8.10;;;2.90;;
29954;SDS011;68448;51.188;6.868;2023-09-19T02:44:30;11.57;;;3.03;;
29954;SDS011;68448;51.188;6.868;2023-09-19T02:46:58;4.10;;;2.37;;
29954;SDS011;68448;51.188;6.868;2023-09-19T02:49:26;9.67;;;2.60;;
29954;SDS011;68448;51.188;6.868;2023-09-19T02:51:53;5.67;;;2.80;;
29954;SDS011;68448;51.188;6.868;2023-09-19T02:54:20;7.70;;;2.70;;
29954;SDS011;68448;51.188;6.868;2023-09-19T02:56:49;7.50;;;2.30;;
29954;SDS011;68448;51.188;6.868;2023-09-19T02:59:16;8.77;;;2.50;;
29954;SDS011;68448;51.188;6.868;2023-09-19T03:01:43;13.03;;;2.73;;
29954;SDS011;68448;51.188;6.868;2023-09-19T03:04:11;7.40;;;2.90;;
29954;SDS011;68448;51.188;6.868;2023-09-19T03:06:38;11.73;;;3.03;;
29954;SDS011;68448;51.188;6.868;2023-09-19T03:09:05;12.13;;;2.83;;
29954;SDS011;68448;51.188;6.868;2023-09-19T03:11:33;9.63;;;2.70;;
29954;SDS011;68448;51.188;6.868;2023-09-19T03:14:01;14.17;;;2.50;;
29954;SDS011;68448;51.188;6.868;2023-09-19T03:16:28;10.00;;;2.57;;
29954;SDS011;68448;51.188;6.868;2023-09-19T03:18:58;9.13;;;2.70;;
29954;SDS011;68448;51.188;6.868;2023-09-19T03:21:26;5.90;;;2.97;;
29954;SDS011;68448;51.188;6.868;2023-09-19T03:23:53;9.90;;;2.83;;
29954;SDS011;68448;51.188;6.868;2023-09-19T03:26:21;23.60;;;3.60;;
29954;SDS011;68448;51.188;6.868;2023-09-19T03:28:48;7.90;;;3.30;;
29954;SDS011;68448;51.188;6.868;2023-09-19T03:31:16;10.87;;;3.07;;
29954;SDS011;68448;51.188;6.868;2023-09-19T03:33:45;10.00;;;3.60;;
29954;SDS011;68448;51.188;6.868;2023-09-19T03:36:12;9.83;;;3.33;;
29954;SDS011;68448;51.188;6.868;2023-09-19T03:38:39;9.27;;;2.73;;
29954;SDS011;68448;51.188;6.868;2023-09-19T03:41:07;6.33;;;3.83;;
29954;SDS011;68448;51.188;6.868;2023-09-19T03:43:35;9.63;;;4.63;;
29954;SDS011;68448;51.188;6.868;2023-09-19T03:46:03;10.90;;;3.60;;
29954;SDS011;68448;51.188;6.868;2023-09-19T03:48:33;9.87;;;3.30;;
29954;SDS011;68448;51.188;6.868;2023-09-19T03:51:01;13.33;;;3.03;;
29954;SDS011;68448;51.188;6.868;2023-09-19T03:53:28;7.53;;;2.60;;
29954;SDS011;68448;51.188;6.868;2023-09-19T03:55:55;5.20;;;2.60;;
29954;SDS011;68448;51.188;6.868;2023-09-19T03:58:22;9.20;;;2.90;;
29954;SDS011;68448;51.188;6.868;2023-09-19T04:00:50;11.00;;;2.60;;
29954;SDS011;68448;51.188;6.868;2023-09-19T04:03:17;5.77;;;2.93;;
29954;SDS011;68448;51.188;6.868;2023-09-19T04:05:46;9.30;;;2.97;;
29954;SDS011;68448;51.188;6.868;2023-09-19T04:08:13;11.00;;;3.20;;
29954;SDS011;68448;51.188;6.868;2023-09-19T04:10:41;10.90;;;2.40;;
29954;SDS011;68448;51.188;6.868;2023-09-19T04:13:08;13.67;;;3.37;;
29954;SDS011;68448;51.188;6.868;2023-09-19T04:15:35;7.00;;;2.87;;
29954;SDS011;68448;51.188;6.868;2023-09-19T04:18:03;8.90;;;3.40;;
29954;SDS011;68448;51.188;6.868;2023-09-19T04:20:30;15.47;;;2.87;;
29954;SDS011;68448;51.188;6.868;2023-09-19T04:22:59;11.47;;;2.80;;
29954;SDS011;68448;51.188;6.868;2023-09-19T04:25:26;8.73;;;2.93;;
29954;SDS011;68448;51.188;6.868;2023-09-19T04:27:54;12.50;;;2.87;;
29954;SDS011;68448;51.188;6.868;2023-09-19T04:30:21;8.93;;;3.53;;
29954;SDS011;68448;51.188;6.868;2023-09-19T04:32:48;8.20;;;3.17;;
29954;SDS011;68448;51.188;6.868;2023-09-19T04:35:16;12.83;;;3.43;;
29954;SDS011;68448;51.188;6.868;2023-09-19T04:37:43;6.47;;;2.97;;
29954;SDS011;68448;51.188;6.868;2023-09-19T04:40:12;15.53;;;3.57;;
29954;SDS011;68448;51.188;6.868;2023-09-19T04:42:39;7.57;;;2.60;;
29954;SDS011;68448;51.188;6.868;2023-09-19T04:45:07;8.43;;;3.50;;
29954;SDS011;68448;51.188;6.868;2023-09-19T04:47:34;6.20;;;2.40;;
29954;SDS011;68448;51.188;6.868;2023-09-19T04:50:01;10.07;;;3.20;;
29954;SDS011;68448;51.188;6.868;2023-09-19T04:52:30;11.33;;;3.50;;
29954;SDS011;68448;51.188;6.868;2023-09-19T04:54:57;14.17;;;3.37;;
29954;SDS011;68448;51.188;6.868;2023-09-19T04:57:25;12.93;;;3.20;;
29954;SDS011;68448;51.188;6.868;2023-09-19T04:59:52;22.70;;;2.93;;
29954;SDS011;68448;51.188;6.868;2023-09-19T05:02:20;9.70;;;3.00;;
29954;SDS011;68448;51.188;6.868;2023-09-19T05:04:47;9.57;;;3.73;;
29954;SDS011;68448;51.188;6.868;2023-09-19T05:07:14;11.37;;;2.87;;
29954;SDS011;68448;51.188;6.868;2023-09-19T05:09:41;5.60;;;2.30;;
29954;SDS011;68448;51.188;6.868;2023-09-19T05:12:08;8.37;;;3.20;;
29954;SDS011;68448;51.188;6.868;2023-09-19T05:14:37;10.27;;;3.50;;
29954;SDS011;68448;51.188;6.868;2023-09-19T05:17:04;7.97;;;3.33;;
29954;SDS011;68448;51.188;6.868;2023-09-19T05:19:31;11.07;;;3.40;;
29954;SDS011;68448;51.188;6.868;2023-09-19T05:21:59;10.80;;;2.80;;
29954;SDS011;68448;51.188;6.868;2023-09-19T05:24:26;8.90;;;2.63;;
29954;SDS011;68448;51.188;6.868;2023-09-19T05:26:53;9.53;;;2.80;;
29954;SDS011;68448;51.188;6.868;2023-09-19T05:29:20;10.50;;;3.03;;
29954;SDS011;68448;51.188;6.868;2023-09-19T05:31:49;12.97;;;3.10;;
29954;SDS011;68448;51.188;6.868;2023-09-19T05:34:16;8.97;;;2.83;;
29954;SDS011;68448;51.188;6.868;2023-09-19T05:36:43;9.13;;;3.10;;
29954;SDS011;68448;51.188;6.868;2023-09-19T05:39:10;8.90;;;3.10;;
29954;SDS011;68448;51.188;6.868;2023-09-19T05:41:37;10.43;;;2.80;;
29954;SDS011;68448;51.188;6.868;2023-09-19T05:44:04;10.77;;;3.10;;
29954;SDS011;68448;51.188;6.868;2023-09-19T05:46:32;15.33;;;3.00;;
29954;SDS011;68448;51.188;6.868;2023-09-19T05:49:00;11.77;;;2.80;;
29954;SDS011;68448;51.188;6.868;2023-09-19T05:51:27;14.97;;;2.87;;
29954;SDS011;68448;51.188;6.868;2023-09-19T05:53:55;11.77;;;3.17;;
29954;SDS011;68448;51.188;6.868;2023-09-19T05:56:22;11.10;;;3.47;;
29954;SDS011;68448;51.188;6.868;2023-09-19T05:58:49;15.43;;;3.77;;
29954;SDS011;68448;51.188;6.868;2023-09-19T06:01:16;11.93;;;2.87;;
29954;SDS011;68448;51.188;6.868;2023-09-19T06:03:43;10.90;;;2.70;;
29954;SDS011;68448;51.188;6.868;2023-09-19T06:06:12;7.90;;;3.40;;
29954;SDS011;68448;51.188;6.868;2023-09-19T06:08:39;14.80;;;2.70;;
29954;SDS011;68448;51.188;6.868;2023-09-19T06:11:06;13.67;;;2.93;;
29954;SDS011;68448;51.188;6.868;2023-09-19T06:13:33;17.23;;;3.43;;
29954;SDS011;68448;51.188;6.868;2023-09-19T06:16:00;8.30;;;3.00;;
29954;SDS011;68448;51.188;6.868;2023-09-19T06:18:27;18.57;;;3.87;;
29954;SDS011;68448;51.188;6.868;2023-09-19T06:20:55;9.60;;;2.83;;
29954;SDS011;68448;51.188;6.868;2023-09-19T06:23:23;11.37;;;3.20;;
29954;SDS011;68448;51.188;6.868;2023-09-19T06:25:50;13.57;;;3.30;;
29954;SDS011;68448;51.188;6.868;2023-09-19T06:28:17;10.70;;;3.00;;
29954;SDS011;68448;51.188;6.868;2023-09-19T06:30:45;9.90;;;3.23;;
29954;SDS011;68448;51.188;6.868;2023-09-19T06:33:12;7.50;;;2.30;;
29954;SDS011;68448;51.188;6.868;2023-09-19T06:35:42;9.17;;;2.97;;
29954;SDS011;68448;51.188;6.868;2023-09-19T06:38:09;14.57;;;3.57;;
29954;SDS011;68448;51.188;6.868;2023-09-19T06:40:37;8.63;;;2.67;;
29954;SDS011;68448;51.188;6.868;2023-09-19T06:43:04;13.53;;;2.63;;
29954;SDS011;68448;51.188;6.868;2023-09-19T06:45:32;11.73;;;2.97;;
29954;SDS011;68448;51.188;6.868;2023-09-19T06:47:59;9.93;;;2.80;;
29954;SDS011;68448;51.188;6.868;2023-09-19T06:50:26;13.33;;;3.47;;
29954;SDS011;68448;51.188;6.868;2023-09-19T06:52:54;5.07;;;2.77;;
29954;SDS011;68448;51.188;6.868;2023-09-19T06:55:21;6.20;;;2.50;;
29954;SDS011;68448;51.188;6.868;2023-09-19T06:57:50;13.13;;;3.20;;
29954;SDS011;68448;51.188;6.868;2023-09-19T07:00:17;7.70;;;3.00;;
29954;SDS011;68448;51.188;6.868;2023-09-19T07:02:54;9.50;;;3.20;;
29954;SDS011;68448;51.188;6.868;2023-09-19T07:05:21;9.87;;;3.17;;
29954;SDS011;68448;51.188;6.868;2023-09-19T07:07:48;8.50;;;2.80;;
29954;SDS011;68448;51.188;6.868;2023-09-19T07:10:16;15.50;;;3.80;;
29954;SDS011;68448;51.188;6.868;2023-09-19T07:12:43;11.93;;;2.77;;
29954;SDS011;68448;51.188;6.868;2023-09-19T07:15:11;11.40;;;4.23;;
29954;SDS011;68448;51.188;6.868;2023-09-19T07:17:38;13.17;;;3.20;;
29954;SDS011;68448;51.188;6.868;2023-09-19T07:20:06;9.13;;;3.30;;
29954;SDS011;68448;51.188;6.868;2023-09-19T07:22:33;13.40;;;3.77;;
29954;SDS011;68448;51.188;6.868;2023-09-19T07:25:00;7.47;;;2.70;;
29954;SDS011;68448;51.188;6.868;2023-09-19T07:27:28;10.93;;;3.93;;
29954;SDS011;68448;51.188;6.868;2023-09-19T07:29:55;11.00;;;3.67;;
29954;SDS011;68448;51.188;6.868;2023-09-19T07:32:23;8.97;;;3.00;;
29954;SDS011;68448;51.188;6.868;2023-09-19T07:34:51;17.00;;;3.40;;
29954;SDS011;68448;51.188;6.868;2023-09-19T07:37:18;9.73;;;2.67;;
29954;SDS011;68448;51.188;6.868;2023-09-19T07:39:45;10.57;;;2.80;;
29954;SDS011;68448;51.188;6.868;2023-09-19T07:42:12;5.40;;;2.70;;
29954;SDS011;68448;51.188;6.868;2023-09-19T07:44:39;13.57;;;3.23;;
29954;SDS011;68448;51.188;6.868;2023-09-19T07:47:06;8.40;;;3.00;;
29954;SDS011;68448;51.188;6.868;2023-09-19T07:49:36;6.97;;;2.90;;
29954;SDS011;68448;51.188;6.868;2023-09-19T07:52:04;16.07;;;4.57;;
29954;SDS011;68448;51.188;6.868;2023-09-19T07:54:31;10.10;;;3.40;;
29954;SDS011;68448;51.188;6.868;2023-09-19T07:56:58;11.47;;;3.03;;
29954;SDS011;68448;51.188;6.868;2023-09-19T07:59:25;9.77;;;3.00;;
29954;SDS011;68448;51.188;6.868;2023-09-19T08:01:52;8.17;;;3.27;;
29954;SDS011;68448;51.188;6.868;2023-09-19T08:04:19;14.43;;;3.57;;
29954;SDS011;68448;51.188;6.868;2023-09-19T08:06:48;16.40;;;3.13;;
29954;SDS011;68448;51.188;6.868;2023-09-19T08:09:15;8.40;;;2.30;;
29954;SDS011;68448;51.188;6.868;2023-09-19T08:11:46;13.07;;;3.27;;
29954;SDS011;68448;51.188;6.868;2023-09-19T08:14:13;10.10;;;3.30;;
29954;SDS011;68448;51.188;6.868;2023-09-19T08:16:40;11.87;;;2.97;;
29954;SDS011;68448;51.188;6.868;2023-09-19T08:19:07;15.53;;;3.67;;
29954;SDS011;68448;51.188;6.868;2023-09-19T08:21:34;7.00;;;2.57;;
29954;SDS011;68448;51.188;6.868;2023-09-19T08:24:03;9.57;;;2.70;;
29954;SDS011;68448;51.188;6.868;2023-09-19T08:26:30;14.70;;;2.63;;
29954;SDS011;68448;51.188;6.868;2023-09-19T08:28:58;6.07;;;2.60;;
29954;SDS011;68448;51.188;6.868;2023-09-19T08:31:25;10.90;;;2.93;;
29954;SDS011;68448;51.188;6.868;2023-09-19T08:33:52;10.00;;;3.30;;
29954;SDS011;68448;51.188;6.868;2023-09-19T08:36:19;9.47;;;3.70;;
29954;SDS011;68448;51.188;6.868;2023-09-19T08:38:46;16.23;;;3.33;;
29954;SDS011;68448;51.188;6.868;2023-09-19T08:41:16;10.00;;;3.23;;
29954;SDS011;68448;51.188;6.868;2023-09-19T08:43:44;9.47;;;2.67;;
29954;SDS011;68448;51.188;6.868;2023-09-19T08:46:13;7.90;;;2.60;;
29954;SDS011;68448;51.188;6.868;2023-09-19T08:48:44;10.80;;;2.87;;
29954;SDS011;68448;51.188;6.868;2023-09-19T08:51:12;6.50;;;2.40;;
29954;SDS011;68448;51.188;6.868;2023-09-19T08:53:46;10.47;;;3.03;;
29954;SDS011;68448;51.188;6.868;2023-09-19T08:56:18;9.00;;;3.13;;
29954;SDS011;68448;51.188;6.868;2023-09-19T08:58:46;10.87;;;2.80;;
29954;SDS011;68448;51.188;6.868;2023-09-19T09:01:15;12.50;;;2.97;;
29954;SDS011;68448;51.188;6.868;2023-09-19T09:03:43;5.53;;;2.37;;
29954;SDS011;68448;51.188;6.868;2023-09-19T09:06:13;13.10;;;2.53;;
29954;SDS011;68448;51.188;6.868;2023-09-19T09:08:41;6.30;;;2.40;;
29954;SDS011;68448;51.188;6.868;2023-09-19T09:11:08;14.53;;;3.13;;
29954;SDS011;68448;51.188;6.868;2023-09-19T09:13:40;9.60;;;2.33;;
29954;SDS011;68448;51.188;6.868;2023-09-19T09:16:08;6.87;;;2.73;;
29954;SDS011;68448;51.188;6.868;2023-09-19T09:18:36;10.43;;;3.47;;
29954;SDS011;68448;51.188;6.868;2023-09-19T09:21:03;4.53;;;2.33;;
29954;SDS011;68448;51.188;6.868;2023-09-19T09:23:30;8.23;;;3.07;;
29954;SDS011;68448;51.188;6.868;2023-09-19T09:25:58;8.27;;;2.80;;
29954;SDS011;68448;51.188;6.868;2023-09-19T09:28:27;18.07;;;2.20;;
29954;SDS011;68448;51.188;6.868;2023-09-19T09:30:55;8.80;;;2.73;;
29954;SDS011;68448;51.188;6.868;2023-09-19T09:33:23;9.60;;;3.23;;
29954;SDS011;68448;51.188;6.868;2023-09-19T09:35:51;6.40;;;2.60;;
29954;SDS011;68448;51.188;6.868;2023-09-19T09:38:19;3.87;;;2.93;;
29954;SDS011;68448;51.188;6.868;2023-09-19T09:40:46;9.50;;;2.37;;
29954;SDS011;68448;51.188;6.868;2023-09-19T09:43:24;19.83;;;4.13;;
29954;SDS011;68448;51.188;6.868;2023-09-19T09:45:58;15.17;;;3.90;;
29954;SDS011;68448;51.188;6.868;2023-09-19T09:48:32;9.47;;;2.27;;
29954;SDS011;68448;51.188;6.868;2023-09-19T09:51:00;6.03;;;2.63;;
29954;SDS011;68448;51.188;6.868;2023-09-19T09:53:27;10.03;;;2.77;;
29954;SDS011;68448;51.188;6.868;2023-09-19T09:55:58;9.13;;;2.37;;
29954;SDS011;68448;51.188;6.868;2023-09-19T09:58:25;5.83;;;2.30;;
29954;SDS011;68448;51.188;6.868;2023-09-19T10:00:53;6.90;;;2.10;;
29954;SDS011;68448;51.188;6.868;2023-09-19T10:03:21;4.60;;;1.70;;
29954;SDS011;68448;51.188;6.868;2023-09-19T10:05:53;7.50;;;2.40;;
29954;SDS011;68448;51.188;6.868;2023-09-19T10:08:20;10.47;;;2.83;;
29954;SDS011;68448;51.188;6.868;2023-09-19T10:10:47;8.93;;;2.33;;
29954;SDS011;68448;51.188;6.868;2023-09-19T10:13:15;7.30;;;2.77;;
29954;SDS011;68448;51.188;6.868;2023-09-19T10:15:42;7.40;;;2.60;;
29954;SDS011;68448;51.188;6.868;2023-09-19T10:18:10;6.43;;;2.77;;
29954;SDS011;68448;51.188;6.868;2023-09-19T10:20:39;6.27;;;2.77;;
29954;SDS011;68448;51.188;6.868;2023-09-19T10:23:08;6.73;;;2.97;;
29954;SDS011;68448;51.188;6.868;2023-09-19T10:25:36;9.57;;;2.67;;
29954;SDS011;68448;51.188;6.868;2023-09-19T10:28:05;8.57;;;2.80;;
29954;SDS011;68448;51.188;6.868;2023-09-19T10:30:35;6.83;;;3.07;;
29954;SDS011;68448;51.188;6.868;2023-09-19T10:33:03;8.80;;;2.73;;
29954;SDS011;68448;51.188;6.868;2023-09-19T10:35:31;7.00;;;2.33;;
29954;SDS011;68448;51.188;6.868;2023-09-19T10:38:00;6.00;;;2.53;;
29954;SDS011;68448;51.188;6.868;2023-09-19T10:40:28;6.13;;;2.53;;
29954;SDS011;68448;51.188;6.868;2023-09-19T10:42:58;8.93;;;3.40;;
29954;SDS011;68448;51.188;6.868;2023-09-19T10:45:27;6.77;;;3.17;;
29954;SDS011;68448;51.188;6.868;2023-09-19T10:47:55;7.30;;;2.30;;
29954;SDS011;68448;51.188;6.868;2023-09-19T10:50:22;6.37;;;2.37;;
29954;SDS011;68448;51.188;6.868;2023-09-19T10:52:50;6.43;;;2.30;;
29954;SDS011;68448;51.188;6.868;2023-09-19T10:55:19;7.53;;;2.70;;
29954;SDS011;68448;51.188;6.868;2023-09-19T10:57:47;5.53;;;2.50;;
29954;SDS011;68448;51.188;6.868;2023-09-19T11:00:14;13.00;;;2.67;;
29954;SDS011;68448;51.188;6.868;2023-09-19T11:02:41;8.17;;;2.63;;
29954;SDS011;68448;51.188;6.868;2023-09-19T11:05:12;5.57;;;2.40;;
29954;SDS011;68448;51.188;6.868;2023-09-19T11:07:58;9.43;;;3.17;;
29954;SDS011;68448;51.188;6.868;2023-09-19T11:10:45;7.63;;;3.17;;
29954;SDS011;68448;51.188;6.868;2023-09-19T11:13:24;8.13;;;2.70;;
29954;SDS011;68448;51.188;6.868;2023-09-19T11:18:50;7.20;;;2.63;;
29954;SDS011;68448;51.188;6.868;2023-09-19T11:26:50;6.40;;;2.77;;
29954;SDS011;68448;51.188;6.868;2023-09-19T11:29:24;9.37;;;2.47;;
29954;SDS011;68448;51.188;6.868;2023-09-19T11:31:51;6.80;;;2.60;;
29954;SDS011;68448;51.188;6.868;2023-09-19T11:34:37;9.40;;;2.57;;
29954;SDS011;68448;51.188;6.868;2023-09-19T11:39:51;8.73;;;2.60;;
29954;SDS011;68448;51.188;6.868;2023-09-19T11:42:43;5.60;;;2.43;;
29954;SDS011;68448;51.188;6.868;2023-09-19T11:47:56;7.00;;;2.50;;
29954;SDS011;68448;51.188;6.868;2023-09-19T11:50:24;5.13;;;3.57;;
29954;SDS011;68448;51.188;6.868;2023-09-19T11:52:52;8.97;;;2.70;;
29954;SDS011;68448;51.188;6.868;2023-09-19T11:55:20;5.17;;;2.33;;
29954;SDS011;68448;51.188;6.868;2023-09-19T11:57:48;4.43;;;2.43;;
29954;SDS011;68448;51.188;6.868;2023-09-19T12:00:17;5.80;;;2.57;;
29954;SDS011;68448;51.188;6.868;2023-09-19T12:02:46;5.13;;;2.67;;
29954;SDS011;68448;51.188;6.868;2023-09-19T12:05:13;9.23;;;3.70;;
29954;SDS011;68448;51.188;6.868;2023-09-19T12:07:43;6.97;;;2.70;;
29954;SDS011;68448;51.188;6.868;2023-09-19T12:10:11;6.67;;;2.63;;
29954;SDS011;68448;51.188;6.868;2023-09-19T12:12:38;5.27;;;2.50;;
29954;SDS011;68448;51.188;6.868;2023-09-19T12:15:07;7.33;;;3.10;;
29954;SDS011;68448;51.188;6.868;2023-09-19T12:17:35;7.00;;;2.70;;
29954;SDS011;68448;51.188;6.868;2023-09-19T12:20:03;8.50;;;3.40;;
29954;SDS011;68448;51.188;6.868;2023-09-19T12:22:38;4.13;;;2.33;;
29954;SDS011;68448;51.188;6.868;2023-09-19T12:25:06;6.17;;;2.20;;
29954;SDS011;68448;51.188;6.868;2023-09-19T12:27:41;7.37;;;2.20;;
29954;SDS011;68448;51.188;6.868;2023-09-19T12:30:10;5.40;;;2.27;;
29954;SDS011;68448;51.188;6.868;2023-09-19T12:32:52;7.37;;;2.87;;
29954;SDS011;68448;51.188;6.868;2023-09-19T12:35:26;3.97;;;2.20;;
29954;SDS011;68448;51.188;6.868;2023-09-19T12:37:54;9.93;;;2.37;;
29954;SDS011;68448;51.188;6.868;2023-09-19T12:40:21;5.83;;;2.40;;
29954;SDS011;68448;51.188;6.868;2023-09-19T12:42:49;4.43;;;2.93;;
29954;SDS011;68448;51.188;6.868;2023-09-19T12:45:17;4.53;;;2.67;;
29954;SDS011;68448;51.188;6.868;2023-09-19T12:50:27;4.50;;;2.47;;
29954;SDS011;68448;51.188;6.868;2023-09-19T12:52:54;4.77;;;2.23;;
29954;SDS011;68448;51.188;6.868;2023-09-19T12:55:23;6.13;;;1.87;;
29954;SDS011;68448;51.188;6.868;2023-09-19T12:57:58;4.80;;;2.20;;
29954;SDS011;68448;51.188;6.868;2023-09-19T13:00:36;6.00;;;2.37;;
29954;SDS011;68448;51.188;6.868;2023-09-19T13:03:13;5.93;;;2.00;;
29954;SDS011;68448;51.188;6.868;2023-09-19T13:05:48;4.17;;;1.70;;
29954;SDS011;68448;51.188;6.868;2023-09-19T13:08:18;4.40;;;2.10;;
29954;SDS011;68448;51.188;6.868;2023-09-19T13:10:59;4.37;;;2.03;;
29954;SDS011;68448;51.188;6.868;2023-09-19T13:13:26;4.67;;;1.60;;
29954;SDS011;68448;51.188;6.868;2023-09-19T13:15:55;3.90;;;2.03;;
29954;SDS011;68448;51.188;6.868;2023-09-19T13:18:22;3.77;;;1.57;;
29954;SDS011;68448;51.188;6.868;2023-09-19T13:23:31;5.43;;;2.10;;
29954;SDS011;68448;51.188;6.868;2023-09-19T13:25:58;3.03;;;1.73;;
29954;SDS011;68448;51.188;6.868;2023-09-19T13:28:26;5.07;;;2.00;;
29954;SDS011;68448;51.188;6.868;2023-09-19T13:30:54;6.60;;;1.57;;
29954;SDS011;68448;51.188;6.868;2023-09-19T13:33:21;11.33;;;2.47;;
29954;SDS011;68448;51.188;6.868;2023-09-19T13:35:48;4.30;;;1.90;;
29954;SDS011;68448;51.188;6.868;2023-09-19T13:38:16;5.50;;;1.90;;
29954;SDS011;68448;51.188;6.868;2023-09-19T13:40:43;6.90;;;2.30;;
29954;SDS011;68448;51.188;6.868;2023-09-19T13:43:10;6.70;;;2.10;;
29954;SDS011;68448;51.188;6.868;2023-09-19T13:45:37;2.73;;;2.00;;
29954;SDS011;68448;51.188;6.868;2023-09-19T13:48:06;3.27;;;1.50;;
29954;SDS011;68448;51.188;6.868;2023-09-19T13:50:33;5.20;;;1.50;;
29954;SDS011;68448;51.188;6.868;2023-09-19T13:53:01;5.13;;;2.00;;
29954;SDS011;68448;51.188;6.868;2023-09-19T13:55:28;3.73;;;1.70;;
29954;SDS011;68448;51.188;6.868;2023-09-19T13:57:55;2.90;;;1.67;;
29954;SDS011;68448;51.188;6.868;2023-09-19T14:00:22;6.70;;;1.90;;
29954;SDS011;68448;51.188;6.868;2023-09-19T14:02:49;5.90;;;2.07;;
29954;SDS011;68448;51.188;6.868;2023-09-19T14:05:19;4.50;;;1.80;;
29954;SDS011;68448;51.188;6.868;2023-09-19T14:07:46;5.00;;;1.70;;
29954;SDS011;68448;51.188;6.868;2023-09-19T14:10:13;4.33;;;1.60;;
29954;SDS011;68448;51.188;6.868;2023-09-19T14:12:40;4.00;;;1.50;;
29954;SDS011;68448;51.188;6.868;2023-09-19T14:15:08;5.00;;;1.73;;
29954;SDS011;68448;51.188;6.868;2023-09-19T14:17:35;2.20;;;1.20;;
29954;SDS011;68448;51.188;6.868;2023-09-19T14:20:03;4.63;;;1.63;;
29954;SDS011;68448;51.188;6.868;2023-09-19T14:22:32;6.00;;;2.07;;
29954;SDS011;68448;51.188;6.868;2023-09-19T14:24:59;4.50;;;1.43;;
29954;SDS011;68448;51.188;6.868;2023-09-19T14:27:26;3.03;;;1.70;;
29954;SDS011;68448;51.188;6.868;2023-09-19T14:29:53;9.57;;;2.33;;
29954;SDS011;68448;51.188;6.868;2023-09-19T14:32:20;3.57;;;1.53;;
29954;SDS011;68448;51.188;6.868;2023-09-19T14:34:47;3.53;;;1.73;;
29954;SDS011;68448;51.188;6.868;2023-09-19T14:37:15;1.63;;;1.23;;
29954;SDS011;68448;51.188;6.868;2023-09-19T14:39:43;5.90;;;1.93;;
29954;SDS011;68448;51.188;6.868;2023-09-19T14:42:10;2.97;;;1.33;;
29954;SDS011;68448;51.188;6.868;2023-09-19T14:44:38;2.97;;;1.97;;
29954;SDS011;68448;51.188;6.868;2023-09-19T14:47:05;4.70;;;1.97;;
29954;SDS011;68448;51.188;6.868;2023-09-19T14:49:33;3.60;;;1.67;;
29954;SDS011;68448;51.188;6.868;2023-09-19T14:52:00;1.90;;;1.27;;
29954;SDS011;68448;51.188;6.868;2023-09-19T14:54:27;3.77;;;1.50;;
29954;SDS011;68448;51.188;6.868;2023-09-19T14:56:55;2.90;;;1.53;;
29954;SDS011;68448;51.188;6.868;2023-09-19T14:59:23;4.43;;;1.30;;
29954;SDS011;68448;51.188;6.868;2023-09-19T15:01:50;6.47;;;1.40;;
29954;SDS011;68448;51.188;6.868;2023-09-19T15:04:17;2.97;;;1.77;;
29954;SDS011;68448;51.188;6.868;2023-09-19T15:06:44;7.77;;;1.73;;
29954;SDS011;68448;51.188;6.868;2023-09-19T15:09:12;3.80;;;1.50;;
29954;SDS011;68448;51.188;6.868;2023-09-19T15:11:39;4.77;;;1.53;;